createdAt,value
2019-05-28T00:00:42.222Z,1007.3
2019-05-28T00:01:42.220Z,1007.3
2019-05-28T00:02:42.259Z,1007.3
2019-05-28T00:03:42.299Z,1007.3
2019-05-28T00:04:42.308Z,1007.3
2019-05-28T00:05:42.321Z,1007.3
2019-05-28T00:06:42.343Z,1007.2
2019-05-28T00:07:42.359Z,1007.3
2019-05-28T00:08:42.398Z,1007.3
2019-05-28T00:09:42.411Z,1007.3
2019-05-28T00:10:42.425Z,1007.3
2019-05-28T00:11:42.446Z,1007.2
2019-05-28T00:12:42.447Z,1007.2
2019-05-28T00:13:42.558Z,1007.2
2019-05-28T00:14:42.552Z,1007.2
2019-05-28T00:15:42.501Z,1007.2
2019-05-28T00:16:42.530Z,1007.2
2019-05-28T00:17:42.573Z,1007.2
2019-05-28T00:18:42.554Z,1007.2
2019-05-28T00:19:42.631Z,1007.1
2019-05-28T00:20:42.567Z,1007.1
2019-05-28T00:21:42.609Z,1007.1
2019-05-28T00:22:42.615Z,1007.1
2019-05-28T00:23:42.606Z,1007
2019-05-28T00:24:42.669Z,1007
2019-05-28T00:25:42.651Z,1007
2019-05-28T00:26:42.663Z,1007
2019-05-28T00:27:42.659Z,1007
2019-05-28T00:28:42.681Z,1007.1
2019-05-28T00:29:42.711Z,1007
2019-05-28T00:30:42.695Z,1007
2019-05-28T00:31:42.719Z,1007
2019-05-28T00:32:42.689Z,1007
2019-05-28T00:33:42.739Z,1006.9
2019-05-28T00:34:42.696Z,1006.9
2019-05-28T00:35:42.676Z,1006.9
2019-05-28T00:36:42.729Z,1006.9
2019-05-28T00:37:42.729Z,1006.8
2019-05-28T00:38:42.772Z,1006.9
2019-05-28T00:39:42.799Z,1006.8
2019-05-28T00:40:42.848Z,1006.9
2019-05-28T00:41:42.905Z,1006.8
2019-05-28T00:42:43.082Z,1006.8
2019-05-28T00:43:43.025Z,1006.8
2019-05-28T00:44:43.034Z,1006.8
2019-05-28T00:45:43.050Z,1006.8
2019-05-28T00:46:42.998Z,1006.8
2019-05-28T00:47:43.062Z,1006.8
2019-05-28T00:48:43.103Z,1006.8
2019-05-28T00:49:43.151Z,1006.7
2019-05-28T00:50:43.184Z,1006.8
2019-05-28T00:51:43.204Z,1006.7
2019-05-28T00:52:43.242Z,1006.7
2019-05-28T00:53:43.266Z,1006.7
2019-05-28T00:54:45.513Z,1006.7
2019-05-28T00:55:43.303Z,1006.8
2019-05-28T00:56:43.373Z,1006.7
2019-05-28T00:57:43.353Z,1006.7
2019-05-28T00:58:43.385Z,1006.6
2019-05-28T00:59:43.455Z,1006.6
2019-05-28T01:00:43.523Z,1006.6
2019-05-28T01:01:43.570Z,1006.7
2019-05-28T01:02:43.621Z,1006.6
2019-05-28T01:03:43.630Z,1006.6
2019-05-28T01:04:43.717Z,1006.6
2019-05-28T01:05:43.735Z,1006.6
2019-05-28T01:06:43.837Z,1006.6
2019-05-28T01:07:43.843Z,1006.6
2019-05-28T01:08:43.920Z,1006.5
2019-05-28T01:09:43.987Z,1006.5
2019-05-28T01:10:43.999Z,1006.5
2019-05-28T01:11:44.032Z,1006.5
2019-05-28T01:12:44.103Z,1006.5
2019-05-28T01:13:44.180Z,1006.5
2019-05-28T01:14:44.241Z,1006.6
2019-05-28T01:15:44.232Z,1006.5
2019-05-28T01:16:44.211Z,1006.5
2019-05-28T01:17:44.254Z,1006.4
2019-05-28T01:18:44.333Z,1006.5
2019-05-28T01:19:44.390Z,1006.5
2019-05-28T01:20:44.418Z,1006.4
2019-05-28T01:21:44.473Z,1006.4
2019-05-28T01:22:44.485Z,1006.4
2019-05-28T01:23:44.563Z,1006.5
2019-05-28T01:24:44.621Z,1006.4
2019-05-28T01:25:44.637Z,1006.5
2019-05-28T01:26:44.633Z,1006.4
2019-05-28T01:27:44.747Z,1006.5
2019-05-28T01:28:44.738Z,1006.4
2019-05-28T01:29:44.780Z,1006.3
2019-05-28T01:30:54.561Z,1006.4
2019-05-28T01:31:44.802Z,1006.4
2019-05-28T01:32:44.844Z,1006.4
2019-05-28T01:33:44.877Z,1006.4
2019-05-28T01:34:44.868Z,1006.4
2019-05-28T01:35:44.975Z,1006.5
2019-05-28T01:36:45.011Z,1006.4
2019-05-28T01:37:44.996Z,1006.4
2019-05-28T01:38:45.037Z,1006.5
2019-05-28T01:39:45.033Z,1006.5
2019-05-28T01:40:45.077Z,1006.4
2019-05-28T01:41:45.108Z,1006.4
2019-05-28T01:42:45.109Z,1006.4
2019-05-28T01:43:45.118Z,1006.4
2019-05-28T01:44:47.621Z,1006.4
2019-05-28T01:45:45.228Z,1006.4
2019-05-28T01:46:45.319Z,1006.4
2019-05-28T01:47:45.212Z,1006.3
2019-05-28T01:48:45.268Z,1006.3
2019-05-28T01:49:45.291Z,1006.4
2019-05-28T01:50:45.347Z,1006.4
2019-05-28T01:51:45.352Z,1006.4
2019-05-28T01:52:45.372Z,1006.3
2019-05-28T01:53:45.387Z,1006.4
2019-05-28T01:54:45.473Z,1006.4
2019-05-28T01:55:45.455Z,1006.4
2019-05-28T01:56:45.481Z,1006.4
2019-05-28T01:57:45.475Z,1006.4
2019-05-28T01:58:45.494Z,1006.4
2019-05-28T01:59:45.526Z,1006.3
2019-05-28T02:00:45.531Z,1006.3
2019-05-28T02:01:45.582Z,1006.3
2019-05-28T02:02:45.619Z,1006.3
2019-05-28T02:03:45.565Z,1006.2
2019-05-28T02:04:45.643Z,1006.3
2019-05-28T02:05:45.623Z,1006.3
2019-05-28T02:06:45.684Z,1006.3
2019-05-28T02:07:45.681Z,1006.2
2019-05-28T02:08:45.672Z,1006.3
2019-05-28T02:09:45.678Z,1006.3
2019-05-28T02:10:45.679Z,1006.3
2019-05-28T02:11:45.735Z,1006.3
2019-05-28T02:12:45.715Z,1006.2
2019-05-28T02:13:45.720Z,1006.2
2019-05-28T02:14:45.731Z,1006.2
2019-05-28T02:15:45.732Z,1006.2
2019-05-28T02:16:45.791Z,1006.2
2019-05-28T02:17:45.785Z,1006.2
2019-05-28T02:18:45.774Z,1006.2
2019-05-28T02:19:45.767Z,1006.2
2019-05-28T02:20:45.791Z,1006.2
2019-05-28T02:21:45.800Z,1006.2
2019-05-28T02:22:45.775Z,1006.2
2019-05-28T02:23:45.778Z,1006.2
2019-05-28T02:24:45.781Z,1006.2
2019-05-28T02:25:45.848Z,1006.2
2019-05-28T02:26:45.930Z,1006.2
2019-05-28T02:27:46.043Z,1006.2
2019-05-28T02:28:45.979Z,1006.2
2019-05-28T02:29:45.988Z,1006.1
2019-05-28T02:30:46.082Z,1006.2
2019-05-28T02:31:46.101Z,1006.1
2019-05-28T02:32:46.237Z,1006.2
2019-05-28T02:33:46.293Z,1006.1
2019-05-28T02:34:46.274Z,1006.2
2019-05-28T02:35:46.322Z,1006.1
2019-05-28T02:36:46.373Z,1006.2
2019-05-28T02:37:46.462Z,1006.1
2019-05-28T02:38:46.518Z,1006.2
2019-05-28T02:39:46.580Z,1006.2
2019-05-28T02:40:46.724Z,1006.2
2019-05-28T02:41:46.646Z,1006.2
2019-05-28T02:42:46.669Z,1006.1
2019-05-28T02:43:46.685Z,1006.2
2019-05-28T02:44:46.723Z,1006.2
2019-05-28T02:45:46.766Z,1006.2
2019-05-28T02:46:46.832Z,1006.1
2019-05-28T02:47:46.882Z,1006.1
2019-05-28T02:48:46.906Z,1006.1
2019-05-28T02:49:46.875Z,1006.2
2019-05-28T02:50:46.974Z,1006.2
2019-05-28T02:51:47.060Z,1006.1
2019-05-28T02:52:47.063Z,1006.2
2019-05-28T02:53:47.146Z,1006.1
2019-05-28T02:54:47.210Z,1006.1
2019-05-28T02:55:47.284Z,1006.1
2019-05-28T02:56:47.285Z,1006.2
2019-05-28T02:57:47.355Z,1006.2
2019-05-28T02:58:47.432Z,1006.2
2019-05-28T02:59:47.471Z,1006.3
2019-05-28T03:00:47.559Z,1006.3
2019-05-28T03:01:47.533Z,1006.2
2019-05-28T03:02:47.608Z,1006.2
2019-05-28T03:03:47.684Z,1006.3
2019-05-28T03:04:47.704Z,1006.3
2019-05-28T03:05:47.799Z,1006.3
2019-05-28T03:06:47.787Z,1006.3
2019-05-28T03:07:47.836Z,1006.2
2019-05-28T03:08:47.867Z,1006.2
2019-05-28T03:09:47.948Z,1006.3
2019-05-28T03:11:04.294Z,1006.3
2019-05-28T03:11:47.988Z,1006.4
2019-05-28T03:12:48.078Z,1006.3
2019-05-28T03:13:48.054Z,1006.3
2019-05-28T03:14:48.136Z,1006.3
2019-05-28T03:15:48.133Z,1006.3
2019-05-28T03:16:48.193Z,1006.3
2019-05-28T03:17:48.242Z,1006.2
2019-05-28T03:18:48.345Z,1006.3
2019-05-28T03:19:48.322Z,1006.3
2019-05-28T03:20:48.333Z,1006.2
2019-05-28T03:21:48.322Z,1006.3
2019-05-28T03:22:48.390Z,1006.3
2019-05-28T03:23:48.403Z,1006.3
2019-05-28T03:24:48.462Z,1006.3
2019-05-28T03:25:48.451Z,1006.4
2019-05-28T03:26:48.485Z,1006.3
2019-05-28T03:27:48.549Z,1006.3
2019-05-28T03:28:49.625Z,1006.3
2019-05-28T03:29:48.651Z,1006.2
2019-05-28T03:30:48.632Z,1006.3
2019-05-28T03:32:05.706Z,1006.3
2019-05-28T03:32:48.765Z,1006.3
2019-05-28T03:33:48.766Z,1006.3
2019-05-28T03:34:48.778Z,1006.4
2019-05-28T03:35:48.794Z,1006.4
2019-05-28T03:36:48.836Z,1006.3
2019-05-28T03:37:48.928Z,1006.3
2019-05-28T03:38:48.921Z,1006.4
2019-05-28T03:39:51.436Z,1006.4
2019-05-28T03:40:48.939Z,1006.3
2019-05-28T03:41:48.966Z,1006.4
2019-05-28T03:42:48.983Z,1006.4
2019-05-28T03:43:48.986Z,1006.4
2019-05-28T03:44:51.383Z,1006.3
2019-05-28T03:45:49.078Z,1006.4
2019-05-28T03:46:49.104Z,1006.4
2019-05-28T03:47:49.138Z,1006.4
2019-05-28T03:48:49.161Z,1006.4
2019-05-28T03:49:49.177Z,1006.4
2019-05-28T03:50:49.169Z,1006.4
2019-05-28T03:51:49.165Z,1006.4
2019-05-28T03:52:49.245Z,1006.3
2019-05-28T03:53:49.192Z,1006.4
2019-05-28T03:54:49.268Z,1006.4
2019-05-28T03:55:51.463Z,1006.4
2019-05-28T03:56:49.242Z,1006.3
2019-05-28T03:57:49.267Z,1006.3
2019-05-28T03:58:49.271Z,1006.4
2019-05-28T03:59:49.323Z,1006.4
2019-05-28T04:00:49.337Z,1006.4
2019-05-28T04:01:49.304Z,1006.4
2019-05-28T04:02:49.345Z,1006.5
2019-05-28T04:03:49.357Z,1006.4
2019-05-28T04:04:49.414Z,1006.4
2019-05-28T04:05:49.421Z,1006.4
2019-05-28T04:06:49.393Z,1006.5
2019-05-28T04:07:49.418Z,1006.4
2019-05-28T04:08:49.435Z,1006.3
2019-05-28T04:09:49.437Z,1006.4
2019-05-28T04:10:49.436Z,1006.4
2019-05-28T04:11:49.461Z,1006.4
2019-05-28T04:12:49.404Z,1006.4
2019-05-28T04:13:49.441Z,1006.4
2019-05-28T04:14:49.433Z,1006.5
2019-05-28T04:15:49.433Z,1006.4
2019-05-28T04:16:49.477Z,1006.5
2019-05-28T04:17:49.426Z,1006.4
2019-05-28T04:18:49.447Z,1006.4
2019-05-28T04:19:49.547Z,1006.5
2019-05-28T04:20:49.541Z,1006.5
2019-05-28T04:21:49.605Z,1006.5
2019-05-28T04:22:49.690Z,1006.5
2019-05-28T04:23:49.696Z,1006.5
2019-05-28T04:24:49.751Z,1006.5
2019-05-28T04:25:49.818Z,1006.5
2019-05-28T04:26:49.900Z,1006.4
2019-05-28T04:27:49.876Z,1006.5
2019-05-28T04:28:49.968Z,1006.5
2019-05-28T04:29:50.044Z,1006.4
2019-05-28T04:30:50.043Z,1006.4
2019-05-28T04:31:50.106Z,1006.5
2019-05-28T04:32:50.122Z,1006.4
2019-05-28T04:33:50.158Z,1006.4
2019-05-28T04:34:50.211Z,1006.5
2019-05-28T04:35:50.274Z,1006.4
2019-05-28T04:36:50.346Z,1006.5
2019-05-28T04:37:50.365Z,1006.4
2019-05-28T04:38:50.424Z,1006.5
2019-05-28T04:39:50.497Z,1006.4
2019-05-28T04:40:50.576Z,1006.5
2019-05-28T04:41:50.601Z,1006.5
2019-05-28T04:42:50.679Z,1006.4
2019-05-28T04:43:50.717Z,1006.5
2019-05-28T04:44:50.838Z,1006.5
2019-05-28T04:45:50.802Z,1006.4
2019-05-28T04:46:50.829Z,1006.5
2019-05-28T04:47:50.821Z,1006.5
2019-05-28T04:48:50.886Z,1006.5
2019-05-28T04:49:50.933Z,1006.4
2019-05-28T04:50:51.030Z,1006.4
2019-05-28T04:51:50.981Z,1006.4
2019-05-28T04:52:51.060Z,1006.4
2019-05-28T04:53:51.057Z,1006.4
2019-05-28T04:54:51.116Z,1006.4
2019-05-28T04:55:51.141Z,1006.4
2019-05-28T04:56:51.232Z,1006.5
2019-05-28T04:57:51.280Z,1006.5
2019-05-28T04:58:51.294Z,1006.5
2019-05-28T04:59:51.317Z,1006.5
2019-05-28T05:00:51.336Z,1006.4
2019-05-28T05:01:51.335Z,1006.4
2019-05-28T05:02:59.127Z,1006.4
2019-05-28T05:03:51.407Z,1006.4
2019-05-28T05:04:51.387Z,1006.3
2019-05-28T05:05:51.627Z,1006.4
2019-05-28T05:06:51.401Z,1006.5
2019-05-28T05:07:51.489Z,1006.4
2019-05-28T05:08:51.539Z,1006.4
2019-05-28T05:09:53.880Z,1006.4
2019-05-28T05:10:51.611Z,1006.5
2019-05-28T05:11:51.729Z,1006.5
2019-05-28T05:12:51.664Z,1006.5
2019-05-28T05:13:51.705Z,1006.4
2019-05-28T05:14:52.045Z,1006.5
2019-05-28T05:15:51.827Z,1006.5
2019-05-28T05:16:51.846Z,1006.4
2019-05-28T05:17:51.876Z,1006.5
2019-05-28T05:18:51.858Z,1006.5
2019-05-28T05:19:51.922Z,1006.5
2019-05-28T05:20:51.978Z,1006.5
2019-05-28T05:21:52.038Z,1006.5
2019-05-28T05:22:52.072Z,1006.5
2019-05-28T05:23:52.038Z,1006.5
2019-05-28T05:24:52.158Z,1006.5
2019-05-28T05:25:52.100Z,1006.5
2019-05-28T05:26:53.006Z,1006.6
2019-05-28T05:27:52.218Z,1006.5
2019-05-28T05:28:52.175Z,1006.5
2019-05-28T05:29:52.262Z,1006.6
2019-05-28T05:30:52.253Z,1006.5
2019-05-28T05:31:52.240Z,1006.6
2019-05-28T05:32:52.268Z,1006.5
2019-05-28T05:33:52.286Z,1006.6
2019-05-28T05:34:52.372Z,1006.5
2019-05-28T05:35:52.404Z,1006.6
2019-05-28T05:36:52.361Z,1006.6
2019-05-28T05:37:52.356Z,1006.7
2019-05-28T05:38:52.417Z,1006.6
2019-05-28T05:39:52.475Z,1006.7
2019-05-28T05:40:52.407Z,1006.7
2019-05-28T05:41:52.519Z,1006.7
2019-05-28T05:42:57.846Z,1006.7
2019-05-28T05:43:52.455Z,1006.7
2019-05-28T05:44:52.532Z,1006.6
2019-05-28T05:45:52.516Z,1006.7
2019-05-28T05:46:52.495Z,1006.8
2019-05-28T05:47:52.513Z,1006.7
2019-05-28T05:48:52.514Z,1006.6
2019-05-28T05:49:52.532Z,1006.7
2019-05-28T05:50:52.581Z,1006.7
2019-05-28T05:51:52.540Z,1006.7
2019-05-28T05:52:52.556Z,1006.7
2019-05-28T05:53:52.548Z,1006.7
2019-05-28T05:54:52.558Z,1006.7
2019-05-28T05:55:52.604Z,1006.7
2019-05-28T05:56:52.578Z,1006.8
2019-05-28T05:57:52.559Z,1006.8
2019-05-28T05:58:52.573Z,1006.6
2019-05-28T05:59:52.636Z,1006.7
2019-05-28T06:00:52.690Z,1006.7
2019-05-28T06:01:52.695Z,1006.7
2019-05-28T06:02:52.821Z,1006.7
2019-05-28T06:03:52.832Z,1006.7
2019-05-28T06:04:52.803Z,1006.7
2019-05-28T06:05:52.843Z,1006.8
2019-05-28T06:06:52.953Z,1006.8
2019-05-28T06:07:53.011Z,1006.8
2019-05-28T06:08:53.024Z,1006.8
2019-05-28T06:09:53.046Z,1006.7
2019-05-28T06:10:53.053Z,1006.7
2019-05-28T06:11:53.195Z,1006.7
2019-05-28T06:12:53.092Z,1006.8
2019-05-28T06:13:53.123Z,1006.7
2019-05-28T06:14:53.258Z,1006.7
2019-05-28T06:15:53.229Z,1006.7
2019-05-28T06:16:53.344Z,1006.7
2019-05-28T06:17:53.328Z,1006.6
2019-05-28T06:18:53.402Z,1006.8
2019-05-28T06:19:53.470Z,1006.7
2019-05-28T06:21:06.985Z,1006.7
2019-05-28T06:21:53.555Z,1006.7
2019-05-28T06:22:53.563Z,1006.8
2019-05-28T06:23:53.609Z,1006.7
2019-05-28T06:24:53.613Z,1006.8
2019-05-28T06:25:53.651Z,1006.8
2019-05-28T06:26:53.790Z,1006.8
2019-05-28T06:27:53.787Z,1006.8
2019-05-28T06:28:53.895Z,1006.9
2019-05-28T06:29:53.933Z,1006.9
2019-05-28T06:30:53.957Z,1007
2019-05-28T06:31:54.017Z,1007
2019-05-28T06:32:54.051Z,1007
2019-05-28T06:33:57.074Z,1007
2019-05-28T06:34:54.105Z,1007
2019-05-28T06:35:54.088Z,1007.1
2019-05-28T06:36:54.161Z,1007
2019-05-28T06:37:54.202Z,1007
2019-05-28T06:38:54.236Z,1007
2019-05-28T06:39:54.306Z,1007.1
2019-05-28T06:40:54.344Z,1007
2019-05-28T06:41:54.376Z,1007.1
2019-05-28T06:42:54.447Z,1007.1
2019-05-28T06:43:54.436Z,1007.1
2019-05-28T06:44:54.832Z,1007.2
2019-05-28T06:45:54.547Z,1007.2
2019-05-28T06:46:54.588Z,1007.2
2019-05-28T06:47:54.639Z,1007.2
2019-05-28T06:48:54.676Z,1007.2
2019-05-28T06:49:54.698Z,1007.2
2019-05-28T06:50:54.760Z,1007.1
2019-05-28T06:51:54.771Z,1007.1
2019-05-28T06:52:54.803Z,1007.2
2019-05-28T06:53:54.776Z,1007.2
2019-05-28T06:54:54.976Z,1007.2
2019-05-28T06:55:54.974Z,1007.3
2019-05-28T06:57:22.114Z,1007.2
2019-05-28T06:57:54.996Z,1007.2
2019-05-28T06:58:54.960Z,1007.2
2019-05-28T06:59:55.020Z,1007.1
2019-05-28T07:00:57.450Z,1007.3
2019-05-28T07:01:55.082Z,1007.2
2019-05-28T07:02:55.112Z,1007.3
2019-05-28T07:04:04.201Z,1007.2
2019-05-28T07:04:55.169Z,1007.2
2019-05-28T07:06:06.019Z,1007.2
2019-05-28T07:06:55.233Z,1007.2
2019-05-28T07:07:55.227Z,1007.2
2019-05-28T07:08:55.249Z,1007.2
2019-05-28T07:09:55.307Z,1007.3
2019-05-28T07:10:57.960Z,1007.2
2019-05-28T07:11:55.338Z,1007.1
2019-05-28T07:12:55.384Z,1007.2
2019-05-28T07:13:55.375Z,1007.2
2019-05-28T07:14:55.474Z,1007.3
2019-05-28T07:15:55.497Z,1007.2
2019-05-28T07:16:55.435Z,1007.2
2019-05-28T07:17:55.435Z,1007.3
2019-05-28T07:18:55.553Z,1007.3
2019-05-28T07:19:55.482Z,1007.3
2019-05-28T07:20:55.536Z,1007.3
2019-05-28T07:21:55.519Z,1007.3
2019-05-28T07:22:55.512Z,1007.4
2019-05-28T07:23:55.568Z,1007.4
2019-05-28T07:24:55.577Z,1007.4
2019-05-28T07:25:55.639Z,1007.4
2019-05-28T07:26:55.628Z,1007.4
2019-05-28T07:28:10.075Z,1007.4
2019-05-28T07:28:55.652Z,1007.4
2019-05-28T07:29:55.666Z,1007.3
2019-05-28T07:30:55.708Z,1007.5
2019-05-28T07:31:55.717Z,1007.4
2019-05-28T07:32:55.771Z,1007.4
2019-05-28T07:33:55.735Z,1007.4
2019-05-28T07:34:55.755Z,1007.4
2019-05-28T07:35:55.719Z,1007.4
2019-05-28T07:36:55.732Z,1007.4
2019-05-28T07:37:55.747Z,1007.5
2019-05-28T07:38:55.752Z,1007.4
2019-05-28T07:39:55.797Z,1007.4
2019-05-28T07:40:55.763Z,1007.4
2019-05-28T07:41:55.740Z,1007.5
2019-05-28T07:42:55.794Z,1007.4
2019-05-28T07:43:55.756Z,1007.5
2019-05-28T07:45:03.033Z,1007.4
2019-05-28T07:45:55.773Z,1007.4
2019-05-28T07:46:55.788Z,1007.4
2019-05-28T07:47:58.078Z,1007.5
2019-05-28T07:48:55.960Z,1007.5
2019-05-28T07:49:55.984Z,1007.5
2019-05-28T07:50:56.087Z,1007.5
2019-05-28T07:51:56.041Z,1007.5
2019-05-28T07:52:56.060Z,1007.5
2019-05-28T07:53:56.156Z,1007.5
2019-05-28T07:54:56.152Z,1007.6
2019-05-28T07:55:56.259Z,1007.6
2019-05-28T07:56:56.281Z,1007.6
2019-05-28T07:57:56.333Z,1007.6
2019-05-28T07:58:56.399Z,1007.6
2019-05-28T07:59:56.416Z,1007.6
2019-05-28T08:00:56.470Z,1007.6
2019-05-28T08:01:56.541Z,1007.6
2019-05-28T08:02:56.536Z,1007.7
2019-05-28T08:03:56.672Z,1007.7
2019-05-28T08:04:56.711Z,1007.7
2019-05-28T08:05:56.743Z,1007.7
2019-05-28T08:06:56.788Z,1007.7
2019-05-28T08:07:56.865Z,1007.6
2019-05-28T08:08:57.042Z,1007.7
2019-05-28T08:09:57.010Z,1007.7
2019-05-28T08:10:56.980Z,1007.7
2019-05-28T08:11:57.043Z,1007.6
2019-05-28T08:12:57.171Z,1007.6
2019-05-28T08:13:57.156Z,1007.7
2019-05-28T08:14:57.229Z,1007.7
2019-05-28T08:16:16.767Z,1007.7
2019-05-28T08:16:57.291Z,1007.8
2019-05-28T08:17:57.346Z,1007.8
2019-05-28T08:18:57.402Z,1007.7
2019-05-28T08:19:57.498Z,1007.7
2019-05-28T08:20:57.622Z,1007.8
2019-05-28T08:21:57.712Z,1007.7
2019-05-28T08:22:57.613Z,1007.7
2019-05-28T08:23:57.697Z,1007.7
2019-05-28T08:24:57.776Z,1007.7
2019-05-28T08:26:01.049Z,1007.7
2019-05-28T08:26:57.883Z,1007.7
2019-05-28T08:27:57.912Z,1007.8
2019-05-28T08:28:59.638Z,1007.7
2019-05-28T08:29:57.953Z,1007.7
2019-05-28T08:31:13.955Z,1007.8
2019-05-28T08:31:58.065Z,1007.6
2019-05-28T08:32:58.102Z,1007.8
2019-05-28T08:33:58.142Z,1007.7
2019-05-28T08:35:05.229Z,1007.8
2019-05-28T08:35:58.279Z,1007.8
2019-05-28T08:37:05.585Z,1007.8
2019-05-28T08:37:58.305Z,1007.9
2019-05-28T08:38:58.378Z,1007.8
2019-05-28T08:39:58.402Z,1007.8
2019-05-28T08:40:58.517Z,1007.8
2019-05-28T08:41:58.535Z,1007.8
2019-05-28T08:42:58.582Z,1007.8
2019-05-28T08:44:01.659Z,1007.7
2019-05-28T08:44:58.658Z,1007.9
2019-05-28T08:45:58.700Z,1007.8
2019-05-28T08:46:58.815Z,1007.8
2019-05-28T08:47:58.829Z,1007.8
2019-05-28T08:48:58.869Z,1007.8
2019-05-28T08:49:58.892Z,1007.8
2019-05-28T08:50:58.951Z,1007.8
2019-05-28T08:51:59.022Z,1007.8
2019-05-28T08:52:58.962Z,1007.8
2019-05-28T08:53:59.066Z,1007.8
2019-05-28T08:54:59.087Z,1007.8
2019-05-28T08:55:59.168Z,1007.9
2019-05-28T08:56:59.231Z,1007.9
2019-05-28T08:58:01.537Z,1007.8
2019-05-28T08:58:59.366Z,1007.9
2019-05-28T08:59:59.328Z,1007.8
2019-05-28T09:00:59.433Z,1007.8
2019-05-28T09:01:59.366Z,1007.8
2019-05-28T09:02:59.417Z,1007.8
2019-05-28T09:03:59.461Z,1007.8
2019-05-28T09:04:59.502Z,1007.7
2019-05-28T09:05:59.484Z,1007.9
2019-05-28T09:06:59.550Z,1007.8
2019-05-28T09:07:59.565Z,1007.8
2019-05-28T09:08:59.678Z,1007.9
2019-05-28T09:09:59.756Z,1007.9
2019-05-28T09:10:59.690Z,1007.8
2019-05-28T09:11:59.710Z,1007.8
2019-05-28T09:12:59.888Z,1007.8
2019-05-28T09:13:59.875Z,1007.9
2019-05-28T09:14:59.833Z,1007.8
2019-05-28T09:15:59.913Z,1007.9
2019-05-28T09:16:59.938Z,1007.9
2019-05-28T09:17:59.997Z,1007.9
2019-05-28T09:18:59.980Z,1007.9
2019-05-28T09:20:00.007Z,1007.9
2019-05-28T09:20:59.998Z,1007.9
2019-05-28T09:22:00.002Z,1007.9
2019-05-28T09:23:00.000Z,1007.9
2019-05-28T09:24:00.035Z,1007.8
2019-05-28T09:25:00.048Z,1007.9
2019-05-28T09:26:00.090Z,1007.9
2019-05-28T09:27:00.092Z,1007.9
2019-05-28T09:28:00.097Z,1007.8
2019-05-28T09:29:00.150Z,1007.8
2019-05-28T09:30:00.134Z,1007.7
2019-05-28T09:31:00.203Z,1007.8
2019-05-28T09:32:00.185Z,1007.8
2019-05-28T09:33:00.214Z,1007.7
2019-05-28T09:34:00.213Z,1007.8
2019-05-28T09:35:02.412Z,1007.7
2019-05-28T09:36:07.802Z,1007.7
2019-05-28T09:37:00.244Z,1007.7
2019-05-28T09:38:00.243Z,1007.8
2019-05-28T09:39:00.326Z,1007.8
2019-05-28T09:40:00.269Z,1007.8
2019-05-28T09:41:00.356Z,1007.9
2019-05-28T09:42:00.292Z,1007.8
2019-05-28T09:43:00.311Z,1007.9
2019-05-28T09:44:00.303Z,1007.8
2019-05-28T09:45:00.299Z,1007.8
2019-05-28T09:46:00.344Z,1007.9
2019-05-28T09:47:00.326Z,1007.9
2019-05-28T09:48:00.320Z,1007.8
2019-05-28T09:49:00.323Z,1007.8
2019-05-28T09:50:00.427Z,1007.9
2019-05-28T09:51:00.371Z,1007.8
2019-05-28T09:52:00.333Z,1007.9
2019-05-28T09:53:00.401Z,1007.9
2019-05-28T09:54:00.352Z,1007.9
2019-05-28T09:55:00.361Z,1007.9
2019-05-28T09:56:00.468Z,1007.9
2019-05-28T09:57:00.461Z,1007.9
2019-05-28T09:58:00.442Z,1008
2019-05-28T09:59:00.511Z,1007.9
2019-05-28T10:00:00.587Z,1007.9
2019-05-28T10:01:00.673Z,1007.9
2019-05-28T10:02:00.643Z,1008
2019-05-28T10:03:00.684Z,1008
2019-05-28T10:04:00.764Z,1008.1
2019-05-28T10:05:00.807Z,1008
2019-05-28T10:06:15.438Z,1008
2019-05-28T10:07:00.996Z,1008.1
2019-05-28T10:08:00.933Z,1008.1
2019-05-28T10:09:00.990Z,1008.1
2019-05-28T10:10:01.052Z,1008.1
2019-05-28T10:11:01.105Z,1008.1
2019-05-28T10:12:01.144Z,1008
2019-05-28T10:13:01.232Z,1008
2019-05-28T10:14:01.236Z,1008
2019-05-28T10:15:01.280Z,1008
2019-05-28T10:16:01.295Z,1008
2019-05-28T10:17:01.368Z,1008.1
2019-05-28T10:18:01.425Z,1008.1
2019-05-28T10:19:01.443Z,1008
2019-05-28T10:20:01.587Z,1008
2019-05-28T10:21:16.811Z,1008
2019-05-28T10:22:01.672Z,1008
2019-05-28T10:23:01.701Z,1008.1
2019-05-28T10:24:01.724Z,1008
2019-05-28T10:25:01.710Z,1007.9
2019-05-28T10:26:01.728Z,1008
2019-05-28T10:27:01.828Z,1008.1
2019-05-28T10:28:02.050Z,1008
2019-05-28T10:29:01.855Z,1008
2019-05-28T10:30:02.053Z,1008
2019-05-28T10:31:02.025Z,1008
2019-05-28T10:32:02.071Z,1008
2019-05-28T10:33:02.046Z,1008.1
2019-05-28T10:34:02.110Z,1008.1
2019-05-28T10:35:04.014Z,1008.1
2019-05-28T10:36:02.051Z,1008
2019-05-28T10:37:02.144Z,1008.1
2019-05-28T10:38:02.401Z,1008
2019-05-28T10:39:02.254Z,1008.1
2019-05-28T10:40:02.210Z,1008.2
2019-05-28T10:41:02.256Z,1008.2
2019-05-28T10:42:02.314Z,1008.2
2019-05-28T10:43:02.319Z,1008.3
2019-05-28T10:44:02.344Z,1008.2
2019-05-28T10:45:02.368Z,1008.2
2019-05-28T10:46:02.510Z,1008.2
2019-05-28T10:47:02.388Z,1008.2
2019-05-28T10:48:02.444Z,1008.2
2019-05-28T10:49:02.398Z,1008.2
2019-05-28T10:50:02.462Z,1008.2
2019-05-28T10:51:02.540Z,1008.2
2019-05-28T10:52:02.528Z,1008.2
2019-05-28T10:53:02.604Z,1008.2
2019-05-28T10:54:02.561Z,1008.2
2019-05-28T10:55:02.993Z,1008.1
2019-05-28T10:56:02.691Z,1008.2
2019-05-28T10:57:02.639Z,1008.1
2019-05-28T10:58:02.723Z,1008.2
2019-05-28T10:59:02.715Z,1008.2
2019-05-28T11:00:03.446Z,1008.2
2019-05-28T11:01:02.785Z,1008.2
2019-05-28T11:02:02.782Z,1008.2
2019-05-28T11:03:02.838Z,1008.2
2019-05-28T11:04:02.814Z,1008.2
2019-05-28T11:05:02.818Z,1008.3
2019-05-28T11:06:02.909Z,1008.2
2019-05-28T11:07:02.861Z,1008.2
2019-05-28T11:08:02.878Z,1008.2
2019-05-28T11:09:02.876Z,1008.3
2019-05-28T11:10:02.883Z,1008.4
2019-05-28T11:11:02.939Z,1008.3
2019-05-28T11:12:02.921Z,1008.3
2019-05-28T11:13:02.908Z,1008.2
2019-05-28T11:14:02.961Z,1008.4
2019-05-28T11:15:02.960Z,1008.3
2019-05-28T11:16:02.980Z,1008.3
2019-05-28T11:17:02.964Z,1008.2
2019-05-28T11:18:02.974Z,1008.3
2019-05-28T11:19:02.947Z,1008.3
2019-05-28T11:20:03.108Z,1008.3
2019-05-28T11:21:08.424Z,1008.3
2019-05-28T11:22:02.990Z,1008.3
2019-05-28T11:23:03.071Z,1008.3
2019-05-28T11:24:03.004Z,1008.2
2019-05-28T11:25:02.999Z,1008.3
2019-05-28T11:26:03.068Z,1008.2
2019-05-28T11:27:03.035Z,1008.2
2019-05-28T11:28:03.034Z,1008.2
2019-05-28T11:29:05.672Z,1008.1
2019-05-28T11:30:03.198Z,1008.2
2019-05-28T11:31:03.226Z,1008.2
2019-05-28T11:32:03.286Z,1008.2
2019-05-28T11:33:03.296Z,1008.2
2019-05-28T11:34:03.315Z,1008.2
2019-05-28T11:35:03.361Z,1008.2
2019-05-28T11:36:03.473Z,1008.2
2019-05-28T11:37:09.289Z,1008.2
2019-05-28T11:38:03.530Z,1008.3
2019-05-28T11:39:03.620Z,1008.2
2019-05-28T11:40:03.673Z,1008.2
2019-05-28T11:41:03.674Z,1008.2
2019-05-28T11:42:03.772Z,1008.2
2019-05-28T11:43:03.811Z,1008.3
2019-05-28T11:44:03.960Z,1008.2
2019-05-28T11:45:04.382Z,1008.2
2019-05-28T11:46:03.932Z,1008.2
2019-05-28T11:47:04.102Z,1008.2
2019-05-28T11:48:04.072Z,1008.2
2019-05-28T11:49:04.015Z,1008.3
2019-05-28T11:50:04.066Z,1008.3
2019-05-28T11:51:04.104Z,1008.2
2019-05-28T11:52:04.263Z,1008.2
2019-05-28T11:53:04.335Z,1008.3
2019-05-28T11:54:04.226Z,1008.3
2019-05-28T11:55:04.285Z,1008.3
2019-05-28T11:56:04.284Z,1008.3
2019-05-28T11:57:04.391Z,1008.2
2019-05-28T11:58:04.375Z,1008.2
2019-05-28T11:59:04.433Z,1008.3
2019-05-28T12:00:04.579Z,1008.2
2019-05-28T12:01:04.525Z,1008.2
2019-05-28T12:02:05.351Z,1008.3
2019-05-28T12:03:04.609Z,1008.1
2019-05-28T12:04:04.655Z,1008.2
2019-05-28T12:05:04.681Z,1008.1
2019-05-28T12:06:04.719Z,1008.1
2019-05-28T12:07:04.822Z,1008.2
2019-05-28T12:08:04.867Z,1008.1
2019-05-28T12:09:04.953Z,1008.2
2019-05-28T12:10:04.870Z,1008.2
2019-05-28T12:11:04.942Z,1008.2
2019-05-28T12:12:04.989Z,1008.2
2019-05-28T12:13:05.040Z,1008.1
2019-05-28T12:14:05.035Z,1008.2
2019-05-28T12:15:05.083Z,1008.1
2019-05-28T12:16:05.139Z,1008.2
2019-05-28T12:17:05.091Z,1008.1
2019-05-28T12:18:05.166Z,1008.2
2019-05-28T12:19:05.180Z,1008.2
2019-05-28T12:20:05.277Z,1008.2
2019-05-28T12:21:05.278Z,1008.1
2019-05-28T12:22:05.288Z,1008.2
2019-05-28T12:23:10.842Z,1008.2
2019-05-28T12:24:05.371Z,1008.1
2019-05-28T12:25:05.412Z,1008.2
2019-05-28T12:26:05.414Z,1008.3
2019-05-28T12:27:05.508Z,1008.2
2019-05-28T12:28:05.497Z,1008.2
2019-05-28T12:29:05.777Z,1008.2
2019-05-28T12:30:05.531Z,1008.1
2019-05-28T12:31:06.046Z,1008.2
2019-05-28T12:32:07.581Z,1008.1